WEATHER

Warnervale Skycam

North West View

North West View

South West View

South West View

Sydney Airport Forecast

  • YSSY TAF

    TAF YSSY 172328Z 1800/1906 24008KT CAVOK FM180300 14010KT 9999 FEW030 FM181200 18005KT 9999 -SHRA SCT030 FM181800 22005KT 9999 -SHRA SCT035 FM190100 12008KT 9999 SCT035 RMK T 19 21 21 19 Q 1030 1028 1028 1029

  • YSSY METAR

    TTF METAR YSSY 180100Z 23005KT 190V280 9999 FEW030 20/14 Q1030 RMK RF00.0/000.0 HZ NOSIG

All information provided on this page is for general information and should NOT be used for flight planning.